Accueil
METAR-TAF:

METAR-TAF

Aéroports :

Aéroport de Saint-Nazaire - Montoir

Saint-Nazaire, France

latitude: 47-19N, longitude: 002-10W, altitude: 3 m

Observation

Le bulletin a été fait il y a 36 minutes, à 13:00 UTC
Vent 15 kt de nord-est, variant entre nord/nord-est et est
Température 20°C
Humidité 30%
Pression 1032 hPa
Visibilité 10 km ou plus
pas de nuages en-dessous de 1500 mètres et pas de cumulonimbus.

METAR: LFRZ 251300Z AUTO 05015KT 020V080 CAVOK 20/02 Q1032 NOSIG

Heure: 15:36 (13:36 UTC)

Prévision

Le bulletin a été fait il y a 2 heures et 36 minutes, à 11:00 UTC
Prévision valable du 25 à 12 UTC au 26 à 12 UTC
Vent 12 kt de nord-est
Visibilité 10 km ou plus
pas de nuages en-dessous de 1500 mètres et pas de cumulonimbus.

TAF: LFRZ 251100Z 2512/2612 05012KT CAVOK

Observations et prévisions météorologiques de plus de 4000 aéroports (messages METAR et TAF).

Les stations disponibles sont représentées par des disques jaunes et rouges sur la carte.

Passer la souris dessus pour voir le nom de la station.

Cliquer dessus pour voir les observations et prévisions météorologiques.

Pour changer de carte: cliquez sur les boutons verts avec une croix noire pour zoomer, sur le bouton vert avec un tiret pour effectuer un zoom arrière, ou sur les flèches vertes pour les cartes adjacentes.


METAR-TAF: